createdAt,value
2018-07-24T00:00:47.208Z,100789.06
2018-07-24T00:03:15.228Z,100792.13
2018-07-24T00:05:43.285Z,100787.41
2018-07-24T00:08:11.288Z,100784.39
2018-07-24T00:10:39.279Z,100783.89
2018-07-24T00:13:07.269Z,100786.24
2018-07-24T00:15:35.272Z,100782.87
2018-07-24T00:18:03.266Z,100784.02
2018-07-24T00:20:31.235Z,100783.66
2018-07-24T00:22:59.236Z,100784.20
2018-07-24T00:25:27.239Z,100786.55
2018-07-24T00:27:55.385Z,100784.34
2018-07-24T00:30:23.398Z,100783.50
2018-07-24T00:32:51.392Z,100780.64
2018-07-24T00:35:19.411Z,100780.81
2018-07-24T00:37:47.552Z,100774.39
2018-07-24T00:40:15.624Z,100779.30
2018-07-24T00:42:43.652Z,100778.05
2018-07-24T00:45:11.665Z,100779.06
2018-07-24T00:47:39.728Z,100773.67
2018-07-24T00:50:07.683Z,100767.78
2018-07-24T00:52:35.681Z,100764.78
2018-07-24T00:55:03.687Z,100768.81
2018-07-24T00:57:31.684Z,100764.94
2018-07-24T00:59:59.763Z,100767.45
2018-07-24T01:02:27.742Z,100764.61
2018-07-24T01:04:55.740Z,100763.91
2018-07-24T01:07:23.716Z,100769.42
2018-07-24T01:09:51.711Z,100769.22
2018-07-24T01:12:20.186Z,100761.84
2018-07-24T01:14:48.172Z,100766.86
2018-07-24T01:17:16.158Z,100762.27
2018-07-24T01:19:44.152Z,100760.06
2018-07-24T01:22:12.137Z,100762.91
2018-07-24T01:24:42.252Z,100765.77
2018-07-24T01:27:10.278Z,100767.11
2018-07-24T01:29:38.264Z,100760.55
2018-07-24T01:32:06.532Z,100757.55
2018-07-24T01:34:34.537Z,100762.70
2018-07-24T01:37:02.557Z,100763.28
2018-07-24T01:39:30.574Z,100767.31
2018-07-24T01:41:58.545Z,100768.69
2018-07-24T01:44:26.540Z,100769.38
2018-07-24T01:46:54.561Z,100768.19
2018-07-24T01:49:22.572Z,100765.17
2018-07-24T01:51:50.565Z,100767.72
2018-07-24T01:54:18.563Z,100764.68
2018-07-24T01:56:46.536Z,100762.39
2018-07-24T01:59:14.520Z,100755.94
2018-07-24T02:01:43.216Z,100762.50
2018-07-24T02:04:11.292Z,100760.06
2018-07-24T02:06:39.303Z,100764.68
2018-07-24T02:09:08.352Z,100765.05
2018-07-24T02:11:36.401Z,100767.30
2018-07-24T02:14:04.385Z,100765.45
2018-07-24T02:16:32.404Z,100769.41
2018-07-24T02:19:00.637Z,100764.22
2018-07-24T02:21:28.664Z,100767.05
2018-07-24T02:23:56.660Z,100769.40
2018-07-24T02:26:24.656Z,100765.93
2018-07-24T02:28:52.736Z,100768.05
2018-07-24T02:31:20.708Z,100763.94
2018-07-24T02:33:48.721Z,100757.23
2018-07-24T02:36:16.722Z,100754.83
2018-07-24T02:38:44.737Z,100757.83
2018-07-24T02:41:12.730Z,100757.46
2018-07-24T02:43:40.720Z,100757.03
2018-07-24T02:46:08.750Z,100752.41
2018-07-24T02:48:36.747Z,100754.12
2018-07-24T02:51:04.781Z,100752.03
2018-07-24T02:53:32.805Z,100751.20
2018-07-24T02:56:00.788Z,100748.39
2018-07-24T02:58:28.772Z,100745.20
2018-07-24T03:00:56.761Z,100746.06
2018-07-24T03:03:24.773Z,100748.44
2018-07-24T03:05:52.772Z,100753.30
2018-07-24T03:08:20.990Z,100757.17
2018-07-24T03:10:48.968Z,100760.19
2018-07-24T03:13:16.965Z,100755.47
2018-07-24T03:15:44.949Z,100756.48
2018-07-24T03:18:12.960Z,100752.79
2018-07-24T03:20:40.994Z,100751.44
2018-07-24T03:23:09.052Z,100755.09
2018-07-24T03:25:37.045Z,100747.03
2018-07-24T03:28:05.012Z,100752.04
2018-07-24T03:30:32.988Z,100747.70
2018-07-24T03:33:02.061Z,100746.22
2018-07-24T03:35:30.122Z,100738.02
2018-07-24T03:37:58.101Z,100741.86
2018-07-24T03:40:26.111Z,100738.31
2018-07-24T03:42:54.173Z,100736.30
2018-07-24T03:45:22.204Z,100738.30
2018-07-24T03:47:50.204Z,100741.63
2018-07-24T03:50:18.200Z,100740.61
2018-07-24T03:52:46.193Z,100739.98
2018-07-24T03:55:14.229Z,100740.26
2018-07-24T03:57:43.264Z,100742.22
2018-07-24T04:00:11.413Z,100745.61
2018-07-24T04:02:39.537Z,100740.60
2018-07-24T04:05:07.504Z,100743.99
2018-07-24T04:07:35.496Z,100743.02
2018-07-24T04:10:03.488Z,100745.58
2018-07-24T04:12:31.482Z,100748.44
2018-07-24T04:14:59.597Z,100747.47
2018-07-24T04:17:27.604Z,100745.01
2018-07-24T04:19:55.592Z,100747.89
2018-07-24T04:22:23.728Z,100742.55
2018-07-24T04:24:51.705Z,100738.49
2018-07-24T04:27:19.689Z,100742.14
2018-07-24T04:29:47.682Z,100738.30
2018-07-24T04:32:15.674Z,100741.17
2018-07-24T04:34:43.724Z,100733.62
2018-07-24T04:37:11.732Z,100738.72
2018-07-24T04:39:39.737Z,100741.03
2018-07-24T04:42:07.828Z,100742.37
2018-07-24T04:44:35.838Z,100740.93
2018-07-24T04:47:03.861Z,100743.18
2018-07-24T04:49:31.896Z,100747.43
2018-07-24T04:51:59.888Z,100746.58
2018-07-24T04:54:27.897Z,100745.11
2018-07-24T04:56:55.923Z,100746.95
2018-07-24T04:59:23.912Z,100751.32
2018-07-24T05:01:51.893Z,100746.00
2018-07-24T05:04:19.884Z,100750.78
2018-07-24T05:06:47.949Z,100749.65
2018-07-24T05:09:15.925Z,100748.82
2018-07-24T05:11:44.551Z,100747.81
2018-07-24T05:14:12.727Z,100746.16
2018-07-24T05:16:41.537Z,100747.01
2018-07-24T05:19:09.500Z,100749.53
2018-07-24T05:21:37.982Z,100746.16
2018-07-24T05:24:06.507Z,100739.63
2018-07-24T05:26:34.532Z,100738.97
2018-07-24T05:29:02.532Z,100746.30
2018-07-24T05:31:30.547Z,100745.02
2018-07-24T05:33:58.557Z,100750.59
2018-07-24T05:36:26.576Z,100754.22
2018-07-24T05:38:54.581Z,100752.92
2018-07-24T05:41:22.626Z,100765.30
2018-07-24T05:43:50.653Z,100767.75
2018-07-24T05:46:18.677Z,100771.27
2018-07-24T05:48:46.730Z,100769.50
2018-07-24T05:51:14.684Z,100780.21
2018-07-24T05:53:42.668Z,100788.47
2018-07-24T05:56:10.712Z,100789.48
2018-07-24T05:58:38.736Z,100789.59
2018-07-24T06:01:06.748Z,100792.98
2018-07-24T06:03:35.726Z,100788.64
2018-07-24T06:06:03.709Z,100797.17
2018-07-24T06:08:31.684Z,100794.30
2018-07-24T06:10:59.666Z,100804.79
2018-07-24T06:13:27.679Z,100799.67
2018-07-24T06:15:55.660Z,100805.09
2018-07-24T06:18:23.708Z,100810.84
2018-07-24T06:20:51.722Z,100804.42
2018-07-24T06:23:20.287Z,100805.70
2018-07-24T06:25:48.268Z,100801.96
2018-07-24T06:28:16.265Z,100804.83
2018-07-24T06:30:44.266Z,100803.79
2018-07-24T06:33:12.246Z,100794.97
2018-07-24T06:35:40.229Z,100798.16
2018-07-24T06:38:08.214Z,100797.38
2018-07-24T06:40:36.182Z,100797.78
2018-07-24T06:43:05.225Z,100798.09
2018-07-24T06:45:33.276Z,100806.49
2018-07-24T06:48:01.262Z,100803.92
2018-07-24T06:50:29.232Z,100799.80
2018-07-24T06:52:57.221Z,100799.48
2018-07-24T06:55:25.396Z,100799.67
2018-07-24T06:57:53.600Z,100802.54
2018-07-24T07:00:21.585Z,100800.44
2018-07-24T07:02:49.560Z,100797.91
2018-07-24T07:05:17.556Z,100799.13
2018-07-24T07:07:45.539Z,100804.89
2018-07-24T07:10:13.548Z,100801.69
2018-07-24T07:12:41.528Z,100797.69
2018-07-24T07:15:09.774Z,100803.75
2018-07-24T07:17:37.909Z,100798.45
2018-07-24T07:20:05.890Z,100803.86
2018-07-24T07:22:33.909Z,100800.63
2018-07-24T07:25:02.074Z,100800.09
2018-07-24T07:27:30.044Z,100800.48
2018-07-24T07:29:58.015Z,100795.83
2018-07-24T07:32:26.091Z,100797.84
2018-07-24T07:34:54.021Z,100797.05
2018-07-24T07:37:22.032Z,100797.91
2018-07-24T07:39:50.072Z,100797.88
2018-07-24T07:42:18.061Z,100801.83
2018-07-24T07:44:46.045Z,100796.63
2018-07-24T07:47:14.012Z,100799.22
2018-07-24T07:49:42.000Z,100791.07
2018-07-24T07:52:10.000Z,100791.91
2018-07-24T07:54:38.025Z,100794.06
2018-07-24T07:57:05.992Z,100794.67
2018-07-24T07:59:34.049Z,100788.09
2018-07-24T08:02:02.028Z,100787.20
2018-07-24T08:04:30.010Z,100780.55
2018-07-24T08:06:58.061Z,100781.92
2018-07-24T08:09:26.041Z,100779.30
2018-07-24T08:11:54.016Z,100772.95
2018-07-24T08:14:22.111Z,100770.44
2018-07-24T08:16:50.073Z,100770.45
2018-07-24T08:19:18.070Z,100771.66
2018-07-24T08:21:46.046Z,100764.17
2018-07-24T08:24:14.137Z,100765.41
2018-07-24T08:26:42.152Z,100755.72
2018-07-24T08:29:10.169Z,100760.30
2018-07-24T08:31:38.164Z,100764.31
2018-07-24T08:34:06.546Z,100752.95
2018-07-24T08:36:34.540Z,100750.41
2018-07-24T08:39:02.540Z,100755.86
2018-07-24T08:41:30.588Z,100745.64
2018-07-24T08:43:58.610Z,100748.40
2018-07-24T08:46:26.658Z,100754.50
2018-07-24T08:48:54.660Z,100755.82
2018-07-24T08:51:22.642Z,100746.78
2018-07-24T08:53:50.969Z,100740.20
2018-07-24T08:56:18.725Z,100742.85
2018-07-24T08:58:46.803Z,100742.91
2018-07-24T09:01:14.879Z,100737.66
2018-07-24T09:03:42.927Z,100745.10
2018-07-24T09:06:10.853Z,100736.02
2018-07-24T09:08:38.869Z,100732.73
2018-07-24T09:11:06.891Z,100735.61
2018-07-24T09:13:34.868Z,100739.59
2018-07-24T09:16:02.937Z,100732.36
2018-07-24T09:18:30.945Z,100734.09
2018-07-24T09:20:59.075Z,100733.87
2018-07-24T09:23:27.032Z,100737.35
2018-07-24T09:25:55.041Z,100730.89
2018-07-24T09:28:23.036Z,100732.39
2018-07-24T09:30:51.054Z,100734.17
2018-07-24T09:33:19.096Z,100734.33
2018-07-24T09:35:47.113Z,100731.36
2018-07-24T09:38:15.136Z,100730.34
2018-07-24T09:40:43.146Z,100735.56
2018-07-24T09:43:11.123Z,100730.97
2018-07-24T09:45:39.335Z,100730.00
2018-07-24T09:48:07.320Z,100729.69
2018-07-24T09:50:35.335Z,100732.25
2018-07-24T09:53:04.116Z,100727.05
2018-07-24T09:55:32.114Z,100723.47
2018-07-24T09:58:00.084Z,100724.13
2018-07-24T10:00:33.592Z,100715.06
2018-07-24T10:03:01.701Z,100711.16
2018-07-24T10:05:29.776Z,100710.89
2018-07-24T10:07:57.685Z,100709.23
2018-07-24T10:10:25.691Z,100714.87
2018-07-24T10:12:53.775Z,100715.37
2018-07-24T10:15:21.661Z,100711.63
2018-07-24T10:17:49.663Z,100702.31
2018-07-24T10:20:17.672Z,100705.73
2018-07-24T10:22:45.685Z,100704.92
2018-07-24T10:25:13.935Z,100705.81
2018-07-24T10:27:42.057Z,100702.30
2018-07-24T10:30:10.094Z,100697.40
2018-07-24T10:32:38.216Z,100706.75
2018-07-24T10:35:06.792Z,100701.46
2018-07-24T10:37:34.903Z,100697.01
2018-07-24T10:40:02.948Z,100699.80
2018-07-24T10:42:30.927Z,100698.72
2018-07-24T10:44:58.916Z,100696.12
2018-07-24T10:47:26.896Z,100694.59
2018-07-24T10:49:54.912Z,100694.64
2018-07-24T10:52:22.902Z,100688.41
2018-07-24T10:54:50.948Z,100683.95
2018-07-24T10:57:18.933Z,100679.84
2018-07-24T10:59:46.972Z,100677.02
2018-07-24T11:02:15.000Z,100678.16
2018-07-24T11:04:43.353Z,100679.45
2018-07-24T11:07:11.344Z,100680.29
2018-07-24T11:09:39.391Z,100681.23
2018-07-24T11:12:07.473Z,100672.16
2018-07-24T11:14:35.453Z,100669.62
2018-07-24T11:17:03.465Z,100664.59
2018-07-24T11:19:31.440Z,100668.36
2018-07-24T11:21:59.460Z,100661.81
2018-07-24T11:24:27.480Z,100658.44
2018-07-24T11:26:55.529Z,100645.11
2018-07-24T11:29:23.508Z,100647.81
2018-07-24T11:31:51.606Z,100642.31
2018-07-24T11:34:19.583Z,100643.84
2018-07-24T11:36:47.580Z,100644.05
2018-07-24T11:39:15.547Z,100635.84
2018-07-24T11:41:43.636Z,100639.53
2018-07-24T11:44:11.689Z,100641.27
2018-07-24T11:46:40.631Z,100642.45
2018-07-24T11:49:08.733Z,100637.75
2018-07-24T11:51:37.860Z,100639.22
2018-07-24T11:54:05.821Z,100633.16
2018-07-24T11:56:33.873Z,100631.59
2018-07-24T11:59:01.934Z,100629.41
2018-07-24T12:01:29.904Z,100636.57
2018-07-24T12:03:59.026Z,100624.29
2018-07-24T12:06:27.044Z,100621.27
2018-07-24T12:08:55.001Z,100616.29
2018-07-24T12:11:22.984Z,100619.84
2018-07-24T12:13:50.968Z,100619.03
2018-07-24T12:16:19.041Z,100615.16
2018-07-24T12:18:47.189Z,100605.94
2018-07-24T12:21:15.452Z,100608.00
2018-07-24T12:23:43.583Z,100603.34
2018-07-24T12:26:11.654Z,100598.93
2018-07-24T12:28:39.652Z,100606.34
2018-07-24T12:31:07.706Z,100595.06
2018-07-24T12:33:35.804Z,100593.41
2018-07-24T12:36:03.972Z,100594.50
2018-07-24T12:38:32.100Z,100602.49
2018-07-24T12:41:00.198Z,100589.11
2018-07-24T12:43:28.505Z,100596.92
2018-07-24T12:45:56.457Z,100588.67
2018-07-24T12:48:24.688Z,100584.85
2018-07-24T12:50:52.817Z,100583.76
2018-07-24T12:53:20.882Z,100577.41
2018-07-24T12:55:49.012Z,100577.41
2018-07-24T12:58:17.315Z,100575.17
2018-07-24T13:00:45.529Z,100573.46
2018-07-24T13:03:13.717Z,100575.81
2018-07-24T13:05:41.702Z,100569.29
2018-07-24T13:08:09.841Z,100565.38
2018-07-24T13:10:37.881Z,100567.02
2018-07-24T13:13:06.011Z,100554.00
2018-07-24T13:15:34.010Z,100563.05
2018-07-24T13:18:02.201Z,100560.16
2018-07-24T13:20:30.185Z,100557.20
2018-07-24T13:22:58.354Z,100554.22
2018-07-24T13:25:26.586Z,100551.26
2018-07-24T13:27:54.726Z,100550.68
2018-07-24T13:30:22.799Z,100549.30
2018-07-24T13:32:50.839Z,100547.67
2018-07-24T13:35:18.808Z,100552.02
2018-07-24T13:37:47.008Z,100550.90
2018-07-24T13:40:15.327Z,100546.91
2018-07-24T13:42:43.578Z,100547.12
2018-07-24T13:45:12.818Z,100549.30
2018-07-24T13:47:40.928Z,100547.88
2018-07-24T13:50:09.117Z,100547.56
2018-07-24T13:52:37.196Z,100549.13
2018-07-24T13:55:05.617Z,100551.86
2018-07-24T13:57:33.676Z,100542.13
2018-07-24T14:00:01.880Z,100548.04
2018-07-24T14:02:29.989Z,100548.69
2018-07-24T14:04:58.012Z,100540.80
2018-07-24T14:07:26.640Z,100540.69
2018-07-24T14:09:55.051Z,100533.03
2018-07-24T14:12:23.099Z,100532.73
2018-07-24T14:14:51.165Z,100525.56
2018-07-24T14:17:19.192Z,100527.60
2018-07-24T14:19:47.204Z,100527.28
2018-07-24T14:22:15.289Z,100522.70
2018-07-24T14:24:43.365Z,100519.22
2018-07-24T14:27:11.379Z,100520.19
2018-07-24T14:29:39.616Z,100516.41
2018-07-24T14:32:07.595Z,100514.13
2018-07-24T14:34:35.564Z,100515.11
2018-07-24T14:37:03.536Z,100512.30
2018-07-24T14:39:31.517Z,100505.73
2018-07-24T14:41:59.488Z,100503.48
2018-07-24T14:44:27.540Z,100494.76
2018-07-24T14:46:56.624Z,100503.99
2018-07-24T14:49:24.600Z,100503.19
2018-07-24T14:51:52.684Z,100505.61
2018-07-24T14:54:20.860Z,100502.86
2018-07-24T14:56:49.160Z,100505.99
2018-07-24T14:59:17.186Z,100491.50
2018-07-24T15:01:45.164Z,100489.32
2018-07-24T15:04:13.328Z,100494.78
2018-07-24T15:06:41.327Z,100491.51
2018-07-24T15:09:11.056Z,100487.52
2018-07-24T15:11:39.036Z,100488.83
2018-07-24T15:14:07.042Z,100484.95
2018-07-24T15:16:34.984Z,100486.77
2018-07-24T15:19:03.021Z,100479.60
2018-07-24T15:21:31.092Z,100475.46
2018-07-24T15:49:54.280Z,100456.56
2018-07-24T15:55:16.434Z,100460.23
2018-07-24T15:57:44.526Z,100458.07
2018-07-24T16:00:12.485Z,100459.30
2018-07-24T16:02:42.552Z,100459.33
2018-07-24T16:05:10.532Z,100465.13
2018-07-24T16:07:38.526Z,100460.31
2018-07-24T16:10:06.661Z,100459.75
2018-07-24T16:12:34.736Z,100455.64
2018-07-24T16:15:02.739Z,100462.53
2018-07-24T16:17:30.738Z,100465.33
2018-07-24T16:19:58.745Z,100461.09
2018-07-24T16:22:26.744Z,100464.80
2018-07-24T16:24:55.144Z,100457.08
2018-07-24T16:27:24.185Z,100458.28
2018-07-24T16:29:52.243Z,100462.37
2018-07-24T16:32:20.300Z,100463.00
2018-07-24T16:34:48.374Z,100465.56
2018-07-24T16:37:16.421Z,100463.13
2018-07-24T16:39:44.520Z,100460.70
2018-07-24T16:42:12.620Z,100462.30
2018-07-24T16:44:40.650Z,100454.90
2018-07-24T16:47:08.752Z,100454.73
2018-07-24T16:49:36.776Z,100449.81
2018-07-24T16:52:04.760Z,100446.21
2018-07-24T16:54:32.893Z,100450.91
2018-07-24T16:57:00.921Z,100442.08
2018-07-24T16:59:28.908Z,100449.53
2018-07-24T17:01:56.965Z,100450.95
2018-07-24T17:04:25.008Z,100452.03
2018-07-24T17:06:54.057Z,100445.42
2018-07-24T17:09:22.050Z,100446.80
2018-07-24T17:11:50.056Z,100445.67
2018-07-24T17:14:18.165Z,100443.75
2018-07-24T17:16:46.141Z,100446.22
2018-07-24T17:19:14.157Z,100448.69
2018-07-24T17:21:42.262Z,100449.47
2018-07-24T17:24:10.256Z,100445.41
2018-07-24T17:26:38.380Z,100442.67
2018-07-24T17:29:06.509Z,100440.69
2018-07-24T17:31:34.508Z,100437.36
2018-07-24T17:34:02.520Z,100447.75
2018-07-24T17:36:30.613Z,100445.83
2018-07-24T17:38:58.638Z,100444.22
2018-07-24T17:41:26.631Z,100444.28
2018-07-24T17:43:54.633Z,100445.26
2018-07-24T17:46:22.637Z,100448.53
2018-07-24T17:48:50.630Z,100445.64
2018-07-24T17:51:18.630Z,100448.43
2018-07-24T17:53:46.797Z,100452.05
2018-07-24T17:56:14.812Z,100450.37
2018-07-24T17:58:42.793Z,100451.76
2018-07-24T18:01:11.032Z,100447.28
2018-07-24T18:03:39.105Z,100453.86
2018-07-24T18:06:07.242Z,100455.16
2018-07-24T18:08:35.268Z,100455.98
2018-07-24T18:11:03.454Z,100458.13
2018-07-24T18:13:31.563Z,100458.70
2018-07-24T18:15:59.568Z,100462.02
2018-07-24T18:18:27.645Z,100462.58
2018-07-24T18:20:55.713Z,100466.75
2018-07-24T18:23:23.748Z,100460.86
2018-07-24T18:25:51.768Z,100460.40
2018-07-24T18:28:19.815Z,100457.58
2018-07-24T18:30:47.848Z,100460.41
2018-07-24T18:33:16.041Z,100462.83
2018-07-24T18:35:44.133Z,100461.83
2018-07-24T18:38:12.140Z,100461.88
2018-07-24T18:40:40.240Z,100467.17
2018-07-24T18:43:08.237Z,100463.84
2018-07-24T18:45:36.360Z,100468.64
2018-07-24T18:48:04.632Z,100465.55
2018-07-24T18:50:32.664Z,100476.20
2018-07-24T18:53:01.434Z,100479.41
2018-07-24T18:55:29.516Z,100484.67
2018-07-24T18:57:57.533Z,100491.31
2018-07-24T19:00:25.512Z,100486.92
2018-07-24T19:02:53.728Z,100485.06
2018-07-24T19:05:21.755Z,100475.41
2018-07-24T19:07:49.712Z,100474.31
2018-07-24T19:10:17.936Z,100485.38
2018-07-24T19:12:45.996Z,100487.19
2018-07-24T19:15:14.206Z,100485.58
2018-07-24T19:17:42.242Z,100490.48
2018-07-24T19:20:10.372Z,100491.09
2018-07-24T19:22:38.470Z,100495.05
2018-07-24T19:25:06.440Z,100499.34
2018-07-24T19:27:34.500Z,100498.05
2018-07-24T19:30:02.557Z,100504.81
2018-07-24T19:32:30.601Z,100500.45
2018-07-24T19:34:58.686Z,100499.04
2018-07-24T19:37:26.632Z,100503.07
2018-07-24T19:39:54.716Z,100499.81
2018-07-24T19:42:22.755Z,100501.09
2018-07-24T19:44:50.934Z,100498.66
2018-07-24T19:47:19.174Z,100497.06
2018-07-24T19:49:47.341Z,100493.61
2018-07-24T19:52:15.392Z,100504.89
2018-07-24T19:54:43.660Z,100501.70
2018-07-24T19:57:11.860Z,100510.63
2018-07-24T19:59:41.020Z,100496.11
2018-07-24T20:02:09.213Z,100508.91
2018-07-24T20:04:37.727Z,100502.38
2018-07-24T20:07:07.082Z,100506.03
2018-07-24T20:09:35.167Z,100494.04
2018-07-24T20:12:03.261Z,100505.02
2018-07-24T20:14:31.420Z,100499.49
2018-07-24T20:16:59.588Z,100504.33
2018-07-24T20:19:27.700Z,100505.88
2018-07-24T20:21:55.836Z,100502.54
2018-07-24T20:24:23.876Z,100507.23
2018-07-24T20:26:52.215Z,100505.34
2018-07-24T20:29:20.435Z,100503.75
2018-07-24T20:31:48.533Z,100502.45
2018-07-24T20:34:17.715Z,100508.91
2018-07-24T20:36:45.994Z,100507.07
2018-07-24T20:39:14.168Z,100505.95
2018-07-24T20:41:42.966Z,100512.31
2018-07-24T20:44:11.153Z,100509.34
2018-07-24T20:46:39.252Z,100507.15
2018-07-24T20:49:07.317Z,100510.39
2018-07-24T20:51:35.548Z,100508.72
2018-07-24T20:54:03.773Z,100504.00
2018-07-24T20:56:33.218Z,100502.11
2018-07-24T20:59:01.469Z,100505.20
2018-07-24T21:01:30.632Z,100506.70
2018-07-24T21:03:58.759Z,100503.69
2018-07-24T21:06:26.940Z,100509.40
2018-07-24T21:08:55.088Z,100506.22
2018-07-24T21:11:23.320Z,100507.70
2018-07-24T21:13:51.354Z,100507.58
2018-07-24T21:16:19.492Z,100506.14
2018-07-24T21:18:47.812Z,100506.59
2018-07-24T21:21:16.076Z,100512.77
2018-07-24T21:23:44.209Z,100510.38
2018-07-24T21:26:12.552Z,100505.22
2018-07-24T21:28:40.739Z,100504.59
2018-07-24T21:31:08.908Z,100510.98
2018-07-24T21:33:38.992Z,100505.73
2018-07-24T21:36:07.170Z,100509.62
2018-07-24T21:38:35.537Z,100506.83
2018-07-24T21:41:03.652Z,100511.81
2018-07-24T21:43:31.913Z,100511.55
2018-07-24T21:46:00.211Z,100512.16
2018-07-24T21:48:28.248Z,100506.34
2018-07-24T21:50:56.465Z,100515.28
2018-07-24T21:53:25.470Z,100512.77
2018-07-24T21:55:54.597Z,100515.31
2018-07-24T21:58:22.712Z,100512.55
2018-07-24T22:00:56.173Z,100519.63
2018-07-24T22:03:24.420Z,100525.27
2018-07-24T22:05:52.670Z,100519.00
2018-07-24T22:08:20.809Z,100521.13
2018-07-24T22:10:48.954Z,100517.06
2018-07-24T22:13:17.072Z,100522.39
2018-07-24T22:15:45.265Z,100522.59
2018-07-24T22:18:13.414Z,100518.03
2018-07-24T22:20:41.549Z,100516.63
2018-07-24T22:23:09.690Z,100518.42
2018-07-24T22:25:37.785Z,100515.19
2018-07-24T22:28:05.936Z,100516.44
2018-07-24T22:30:33.969Z,100522.50
2018-07-24T22:33:03.028Z,100513.62
2018-07-24T22:35:31.062Z,100515.53
2018-07-24T22:38:00.124Z,100513.25
2018-07-24T22:40:28.104Z,100517.73
2018-07-24T22:42:56.117Z,100522.23
2018-07-24T22:45:24.131Z,100516.11
2018-07-24T22:47:52.180Z,100517.91
2018-07-24T22:50:20.313Z,100518.19
2018-07-24T22:52:49.348Z,100518.61
2018-07-24T22:55:17.428Z,100519.95
2018-07-24T22:57:46.688Z,100516.69
2018-07-24T23:00:15.850Z,100523.25
2018-07-24T23:02:43.877Z,100519.82
2018-07-24T23:05:11.869Z,100517.11
2018-07-24T23:07:39.940Z,100521.87
2018-07-24T23:10:08.001Z,100515.25
2018-07-24T23:12:35.988Z,100517.96
2018-07-24T23:15:04.652Z,100524.40
2018-07-24T23:17:32.742Z,100521.98
2018-07-24T23:20:00.820Z,100523.48
2018-07-24T23:22:28.874Z,100522.02
2018-07-24T23:24:57.036Z,100523.60
2018-07-24T23:27:25.027Z,100519.50
2018-07-24T23:29:53.112Z,100519.84
2018-07-24T23:32:21.144Z,100516.97
2018-07-24T23:34:49.144Z,100523.05
2018-07-24T23:37:17.159Z,100526.30
2018-07-24T23:39:45.284Z,100523.16
2018-07-24T23:42:13.429Z,100521.34
2018-07-24T23:44:41.444Z,100516.73
2018-07-24T23:47:09.470Z,100520.11
2018-07-24T23:49:38.504Z,100528.59
2018-07-24T23:52:06.683Z,100519.77
2018-07-24T23:54:34.696Z,100514.91
2018-07-24T23:57:02.702Z,100515.50
2018-07-24T23:59:30.692Z,100513.15
